Time;durP1;ratioP1;P1;durP2;ratioP2;P2;SDS_P1;SDS_P2;PMS_P1;PMS_P2;Temp;Humidity;BMP_temperature;BMP_pressure;BME280_temperature;BME280_humidity;BME280_pressure;Samples;Min_cycle;Max_cycle;Signal;HPM_P1;HPM_P2
2022/04/06 00:00:11;;;;;;;9.60;2.78;;;11.30;43.40;;;;;;5109489;28;34118;-76
2022/04/06 00:02:39;;;;;;;6.20;2.50;;;11.30;44.00;;;;;;5089731;28;34059;-76
2022/04/06 00:05:08;;;;;;;4.65;2.70;;;11.30;43.90;;;;;;5089473;28;35747;-76
2022/04/06 00:07:34;;;;;;;8.00;2.58;;;11.30;43.60;;;;;;5090069;28;34116;-77
2022/04/06 00:10:00;;;;;;;5.38;2.40;;;11.30;43.40;;;;;;5073696;28;34147;-76
2022/04/06 00:12:26;;;;;;;4.63;2.72;;;11.30;43.00;;;;;;5090547;28;33772;-76
2022/04/06 00:14:52;;;;;;;4.10;2.63;;;11.30;42.10;;;;;;5073235;28;35790;-76
2022/04/06 00:17:18;;;;;;;7.10;2.60;;;11.30;42.10;;;;;;5089386;28;34380;-76
2022/04/06 00:19:44;;;;;;;3.67;2.20;;;11.20;41.90;;;;;;5090233;28;34201;-75
2022/04/06 00:22:10;;;;;;;4.68;2.30;;;11.20;41.50;;;;;;5108016;28;33988;-76
2022/04/06 00:24:36;;;;;;;3.13;2.00;;;11.30;41.60;;;;;;5089820;28;36337;-78
2022/04/06 00:27:02;;;;;;;4.43;2.10;;;11.20;41.40;;;;;;5072290;28;34121;-77
2022/04/06 00:29:28;;;;;;;3.45;1.90;;;11.20;41.10;;;;;;5090186;28;34807;-76
2022/04/06 00:31:53;;;;;;;3.00;2.00;;;11.20;41.00;;;;;;5107833;28;35264;-76
2022/04/06 00:35:28;;;;;;;8.60;2.35;;;11.20;41.00;;;;;;5089642;28;36509;-76
2022/04/06 00:37:05;;;;;;;5.72;1.67;;;11.20;41.00;;;;;;5092397;28;34032;-76
2022/04/06 00:39:31;;;;;;;4.43;2.58;;;11.10;40.80;;;;;;5072962;28;34203;-76
2022/04/06 00:41:57;;;;;;;8.45;2.17;;;11.20;40.80;;;;;;5090093;28;34257;-76
2022/04/06 00:44:23;;;;;;;7.07;2.15;;;11.20;40.70;;;;;;5073085;28;35661;-76
2022/04/06 00:46:49;;;;;;;4.78;2.25;;;11.20;40.80;;;;;;5073151;28;34014;-76
2022/04/06 00:49:15;;;;;;;4.63;2.05;;;11.10;40.70;;;;;;5089571;28;34057;-76
2022/04/06 00:51:44;;;;;;;2.67;1.90;;;11.10;40.60;;;;;;5090041;28;34053;-76
2022/04/06 00:54:13;;;;;;;5.45;2.15;;;11.10;40.50;;;;;;5090365;28;34317;-76
2022/04/06 00:56:40;;;;;;;3.50;1.80;;;11.10;40.70;;;;;;5089882;28;34136;-76
2022/04/06 00:59:07;;;;;;;4.13;2.10;;;11.10;40.70;;;;;;5089902;28;34029;-76
2022/04/06 01:01:32;;;;;;;3.15;1.90;;;11.00;40.60;;;;;;5089271;28;34571;-76
2022/04/06 01:03:58;;;;;;;5.40;1.92;;;11.00;40.50;;;;;;5088619;28;35288;-75
2022/04/06 01:06:25;;;;;;;6.72;2.05;;;11.00;40.50;;;;;;5088977;28;34431;-76
2022/04/06 01:08:52;;;;;;;3.80;1.77;;;10.90;40.50;;;;;;5089636;28;34389;-76
2022/04/06 01:11:19;;;;;;;3.67;1.90;;;10.90;40.50;;;;;;5108840;28;34353;-76
2022/04/06 01:13:46;;;;;;;5.85;1.90;;;10.90;40.50;;;;;;5091060;28;35502;-76
2022/04/06 01:16:12;;;;;;;2.53;1.65;;;10.90;40.50;;;;;;5090904;28;34001;-76
2022/04/06 01:18:40;;;;;;;4.60;1.80;;;10.90;40.50;;;;;;5089804;28;33997;-76
2022/04/06 01:21:06;;;;;;;5.55;2.00;;;10.90;40.50;;;;;;5091547;28;34220;-76
2022/04/06 01:23:32;;;;;;;4.45;2.08;;;10.90;40.60;;;;;;5091359;28;35685;-76
2022/04/06 01:25:58;;;;;;;4.72;1.75;;;10.80;40.50;;;;;;5074092;28;34261;-76
2022/04/06 01:28:24;;;;;;;2.58;1.77;;;10.80;40.60;;;;;;5090482;28;34054;-76
2022/04/06 01:30:50;;;;;;;5.53;1.98;;;10.80;40.50;;;;;;5090121;28;34014;-76
2022/04/06 01:33:16;;;;;;;3.42;2.05;;;10.80;40.50;;;;;;5090306;28;35713;-76
2022/04/06 01:35:42;;;;;;;6.30;1.90;;;10.70;40.70;;;;;;5091048;28;34192;-76
2022/04/06 01:38:09;;;;;;;4.38;1.73;;;10.70;40.80;;;;;;5089778;28;34009;-76
2022/04/06 01:40:35;;;;;;;5.28;2.10;;;10.70;40.70;;;;;;5089481;28;34377;-76
2022/04/06 01:43:01;;;;;;;5.20;1.90;;;10.70;41.50;;;;;;5108206;28;34557;-76
2022/04/06 01:45:27;;;;;;;2.72;2.03;;;10.70;40.80;;;;;;5088472;28;34176;-76
2022/04/06 01:47:53;;;;;;;6.57;2.33;;;10.60;40.70;;;;;;5108750;28;34561;-76
2022/04/06 01:53:02;;;;;;;3.97;1.67;;;10.60;40.80;;;;;;5106720;28;34193;-76
2022/04/06 01:55:28;;;;;;;4.18;1.88;;;10.50;40.80;;;;;;5107970;28;34094;-76
2022/04/06 01:57:54;;;;;;;3.20;1.85;;;10.60;40.80;;;;;;5090540;28;34017;-76
2022/04/06 02:00:20;;;;;;;6.38;2.03;;;10.50;40.70;;;;;;5090720;28;34136;-77
2022/04/06 02:02:49;;;;;;;3.65;2.03;;;10.50;40.70;;;;;;5108177;28;34102;-75
2022/04/06 02:05:16;;;;;;;3.35;1.80;;;10.50;40.60;;;;;;5090148;28;34096;-77
2022/04/06 02:07:42;;;;;;;3.15;2.10;;;10.50;40.60;;;;;;5090743;28;34206;-76
2022/04/06 02:10:09;;;;;;;2.92;1.90;;;10.50;40.60;;;;;;5090748;28;34422;-77
2022/04/06 02:12:37;;;;;;;3.30;2.00;;;10.50;40.50;;;;;;5089398;28;36536;-76
2022/04/06 02:15:03;;;;;;;3.58;1.95;;;10.50;40.50;;;;;;5090120;28;34305;-76
2022/04/06 02:17:29;;;;;;;4.55;2.17;;;10.50;40.50;;;;;;5088940;28;34159;-76
2022/04/06 02:19:56;;;;;;;3.90;2.05;;;10.50;40.40;;;;;;5106576;28;34098;-75
2022/04/06 02:22:23;;;;;;;3.35;1.83;;;10.50;40.40;;;;;;5088212;28;35805;-76
2022/04/06 02:24:49;;;;;;;3.55;1.85;;;10.50;40.40;;;;;;5071430;28;34413;-77
2022/04/06 02:27:15;;;;;;;5.90;2.00;;;10.50;40.30;;;;;;5089155;28;34095;-77
2022/04/06 02:29:41;;;;;;;6.88;1.80;;;10.50;40.40;;;;;;5100995;27;34269;-76
2022/04/06 02:32:08;;;;;;;5.43;1.83;;;10.50;40.30;;;;;;5089263;27;36073;-75
2022/04/06 02:34:34;;;;;;;3.53;1.65;;;10.50;40.30;;;;;;5072260;28;34501;-76
2022/04/06 02:37:01;;;;;;;6.20;2.38;;;10.50;40.30;;;;;;5127368;27;34302;-77
2022/04/06 02:39:27;;;;;;;2.58;1.58;;;10.50;40.30;;;;;;5108685;27;34233;-76
2022/04/06 02:41:53;;;;;;;3.30;1.98;;;10.50;40.20;;;;;;5108382;27;35783;-76
2022/04/06 02:44:19;;;;;;;6.88;2.13;;;10.50;40.20;;;;;;5104442;28;34225;-76
2022/04/06 02:46:48;;;;;;;2.42;1.80;;;10.50;40.10;;;;;;5106404;28;34057;-76
2022/04/06 02:49:14;;;;;;;5.55;1.70;;;10.40;40.00;;;;;;5087717;28;33970;-76
2022/04/06 02:51:40;;;;;;;3.28;2.03;;;10.50;40.20;;;;;;5088142;28;35779;-76
2022/04/06 02:54:07;;;;;;;2.88;1.45;;;10.40;40.00;;;;;;5087762;28;34060;-75
2022/04/06 02:56:33;;;;;;;6.78;2.13;;;10.40;40.10;;;;;;5089029;28;34187;-77
2022/04/06 02:59:01;;;;;;;2.40;1.63;;;10.40;39.90;;;;;;5090979;28;34609;-76
2022/04/06 03:01:27;;;;;;;3.55;1.60;;;10.40;39.90;;;;;;5088737;28;35853;-76
2022/04/06 03:03:53;;;;;;;2.75;1.67;;;10.40;39.50;;;;;;5071827;28;34076;-76
2022/04/06 03:06:19;;;;;;;2.53;1.40;;;10.30;38.50;;;;;;5071726;28;34148;-75
2022/04/06 03:08:45;;;;;;;5.68;1.60;;;10.30;39.60;;;;;;5086722;28;34159;-75
2022/04/06 03:11:11;;;;;;;1.98;1.42;;;10.30;39.60;;;;;;5107547;28;34459;-75
2022/04/06 03:13:38;;;;;;;3.63;1.52;;;10.30;39.30;;;;;;5107025;28;34212;-76
2022/04/06 03:16:04;;;;;;;3.83;1.58;;;10.30;39.70;;;;;;5090221;28;34263;-76
2022/04/06 03:18:30;;;;;;;7.20;1.75;;;10.30;39.10;;;;;;5089196;28;34135;-76
2022/04/06 03:20:57;;;;;;;2.55;1.50;;;10.30;39.00;;;;;;5105911;28;34582;-76
2022/04/06 03:23:23;;;;;;;1.88;1.25;;;10.30;39.00;;;;;;5104552;28;34075;-75
2022/04/06 03:25:49;;;;;;;6.72;1.42;;;10.30;38.80;;;;;;5087559;27;34116;-75
2022/04/06 03:28:15;;;;;;;2.78;1.55;;;10.30;38.70;;;;;;5088937;28;34148;-76
2022/04/06 03:30:42;;;;;;;3.20;1.48;;;10.30;39.00;;;;;;5105180;28;34269;-75
2022/04/06 03:33:09;;;;;;;4.45;1.30;;;10.30;38.60;;;;;;5087580;28;34413;-75
2022/04/06 03:35:36;;;;;;;2.97;1.48;;;10.30;38.60;;;;;;5088829;28;34009;-75
2022/04/06 03:38:02;;;;;;;5.70;1.60;;;10.30;38.50;;;;;;5089409;28;34555;-76
2022/04/06 03:40:28;;;;;;;4.78;1.63;;;10.30;38.50;;;;;;5107030;28;34280;-75
2022/04/06 03:42:55;;;;;;;3.45;1.45;;;10.20;38.40;;;;;;5104529;28;33975;-75
2022/04/06 03:45:21;;;;;;;6.63;1.33;;;10.20;38.30;;;;;;5105379;28;34061;-76
2022/04/06 03:47:47;;;;;;;7.78;1.35;;;10.20;38.40;;;;;;5088369;28;34353;-78
2022/04/06 03:50:14;;;;;;;3.88;1.67;;;10.20;38.40;;;;;;5088808;28;35551;-75
2022/04/06 03:52:40;;;;;;;8.20;1.90;;;10.20;38.40;;;;;;5074955;28;34180;-78
2022/04/06 03:55:08;;;;;;;4.82;1.60;;;10.20;38.40;;;;;;5076499;28;34134;-75
2022/04/06 03:57:35;;;;;;;4.22;1.40;;;10.10;38.50;;;;;;5091062;28;34119;-76
2022/04/06 04:00:04;;;;;;;2.95;2.05;;;10.10;38.60;;;;;;5091243;28;36699;-75
2022/04/06 04:02:31;;;;;;;3.10;1.88;;;10.10;38.60;;;;;;5108292;28;34110;-75
2022/04/06 04:04:58;;;;;;;2.80;1.70;;;10.10;38.60;;;;;;5074962;28;34255;-76
2022/04/06 04:07:24;;;;;;;4.18;1.75;;;10.10;38.60;;;;;;5092657;28;34078;-76
2022/04/06 04:09:50;;;;;;;1.48;1.38;;;10.10;38.70;;;;;;5074460;28;34349;-76
2022/04/06 04:12:17;;;;;;;3.65;2.00;;;10.10;38.60;;;;;;5056090;28;34193;-76
2022/04/06 04:14:44;;;;;;;2.42;1.70;;;10.10;38.70;;;;;;5091229;28;34274;-76
2022/04/06 04:17:10;;;;;;;6.63;1.70;;;10.10;38.70;;;;;;5092270;28;34068;-75
2022/04/06 04:19:36;;;;;;;3.72;2.00;;;10.10;38.70;;;;;;5091343;28;36537;-76
2022/04/06 04:22:02;;;;;;;1.88;1.30;;;10.10;38.70;;;;;;5108653;28;34162;-76
2022/04/06 04:24:28;;;;;;;5.82;2.00;;;10.10;38.70;;;;;;5074947;28;34239;-75
2022/04/06 04:26:54;;;;;;;6.07;1.80;;;10.10;38.80;;;;;;5090163;28;34004;-75
2022/04/06 04:29:20;;;;;;;6.78;2.50;;;10.10;38.80;;;;;;5111228;28;34192;-76
2022/04/06 04:31:46;;;;;;;3.90;2.17;;;10.10;38.80;;;;;;5090246;28;34437;-76
2022/04/06 04:34:14;;;;;;;4.00;1.77;;;10.10;38.90;;;;;;5074424;28;34482;-76
2022/04/06 04:36:40;;;;;;;2.80;1.80;;;10.10;38.90;;;;;;5108726;28;34074;-76
2022/04/06 04:39:06;;;;;;;3.53;1.73;;;10.10;38.90;;;;;;5090249;28;36824;-76
2022/04/06 04:41:33;;;;;;;3.63;2.28;;;10.10;38.90;;;;;;5090525;28;34032;-76
2022/04/06 04:43:59;;;;;;;5.20;2.08;;;10.00;38.80;;;;;;5100359;27;34211;-76
2022/04/06 04:46:26;;;;;;;4.80;2.30;;;10.00;38.80;;;;;;5109257;27;34487;-75
2022/04/06 04:48:52;;;;;;;5.07;2.10;;;10.10;39.00;;;;;;5092765;27;35996;-75
2022/04/06 04:51:17;;;;;;;3.80;1.85;;;10.00;38.90;;;;;;5110276;27;34123;-75
2022/04/06 04:53:43;;;;;;;4.65;2.05;;;10.00;38.90;;;;;;5127912;27;34339;-76
2022/04/06 04:56:10;;;;;;;6.50;2.30;;;10.00;39.00;;;;;;5109520;27;34327;-76
2022/04/06 04:58:36;;;;;;;4.90;2.00;;;10.00;39.00;;;;;;5109788;27;35600;-75
2022/04/06 05:01:02;;;;;;;4.63;2.35;;;10.00;39.00;;;;;;5112651;27;34130;-76
2022/04/06 05:03:28;;;;;;;3.63;2.00;;;10.00;39.10;;;;;;5111345;27;34072;-76
2022/04/06 05:05:56;;;;;;;6.55;2.67;;;10.00;39.10;;;;;;5109899;27;34428;-76
2022/04/06 05:08:23;;;;;;;6.28;2.28;;;10.00;39.10;;;;;;5110549;27;36367;-76
2022/04/06 05:10:49;;;;;;;3.97;2.38;;;10.00;39.10;;;;;;5109219;27;34245;-76
2022/04/06 05:13:17;;;;;;;4.72;2.63;;;10.00;39.10;;;;;;5130351;27;34141;-76
2022/04/06 05:15:44;;;;;;;6.63;2.58;;;10.00;39.20;;;;;;5110935;27;34127;-76
2022/04/06 05:18:10;;;;;;;5.00;2.22;;;10.00;39.20;;;;;;5127412;27;34616;-76
2022/04/06 05:20:36;;;;;;;2.80;1.83;;;10.00;39.20;;;;;;5110180;27;34028;-78
2022/04/06 05:23:02;;;;;;;6.00;2.35;;;10.00;39.30;;;;;;5095151;27;34226;-76
2022/04/06 05:25:28;;;;;;;5.57;2.08;;;10.00;39.30;;;;;;5129398;27;33668;-75
2022/04/06 05:27:56;;;;;;;4.38;2.15;;;10.00;39.30;;;;;;5126990;27;34260;-76
2022/04/06 05:30:24;;;;;;;4.55;2.28;;;10.00;39.30;;;;;;5090966;27;34047;-75
2022/04/06 05:32:53;;;;;;;6.80;2.83;;;10.00;39.40;;;;;;5092663;27;34398;-77
2022/04/06 05:35:20;;;;;;;6.15;2.85;;;10.00;39.40;;;;;;5095553;27;33855;-76
2022/04/06 05:37:46;;;;;;;3.75;2.42;;;10.00;39.40;;;;;;5126342;27;34335;-76
2022/04/06 05:40:15;;;;;;;3.00;2.30;;;10.10;39.50;;;;;;5108509;27;34036;-75
2022/04/06 05:42:42;;;;;;;4.60;2.88;;;10.10;39.60;;;;;;5087591;27;34237;-76
2022/04/06 05:45:08;;;;;;;6.43;2.70;;;10.00;39.50;;;;;;5088013;28;34472;-75
2022/04/06 05:47:36;;;;;;;7.15;2.35;;;10.00;39.60;;;;;;5087736;28;35943;-76
2022/04/06 05:50:04;;;;;;;5.20;2.33;;;10.00;39.50;;;;;;5107807;28;34035;-77
2022/04/06 05:52:30;;;;;;;3.75;2.55;;;10.00;39.60;;;;;;5071311;28;34429;-76
2022/04/06 05:54:56;;;;;;;3.90;1.98;;;10.10;40.20;;;;;;5107125;27;34418;-75
2022/04/06 05:57:23;;;;;;;6.05;2.40;;;10.10;39.50;;;;;;5107056;27;35855;-75
2022/04/06 05:59:49;;;;;;;3.70;2.08;;;10.10;39.40;;;;;;5106897;27;34253;-76
2022/04/06 06:02:15;;;;;;;5.35;1.85;;;10.10;39.40;;;;;;5090456;27;34286;-75
2022/04/06 06:04:41;;;;;;;3.95;1.98;;;10.10;39.40;;;;;;5123419;27;34402;-75
2022/04/06 06:07:07;;;;;;;3.90;2.33;;;10.20;39.30;;;;;;5070399;28;36296;-75
2022/04/06 06:09:35;;;;;;;9.98;2.05;;;10.20;39.20;;;;;;5074560;27;34100;-75
2022/04/06 06:12:01;;;;;;;2.60;1.67;;;10.20;39.10;;;;;;5107594;27;34187;-78
2022/04/06 06:14:28;;;;;;;3.80;1.83;;;10.20;38.90;;;;;;5092495;27;34404;-75
2022/04/06 06:16:54;;;;;;;3.80;1.98;;;10.20;38.90;;;;;;5106549;27;35755;-76
2022/04/06 06:19:20;;;;;;;4.28;1.92;;;10.30;38.90;;;;;;5109124;27;34249;-76
2022/04/06 06:21:46;;;;;;;5.43;1.83;;;10.30;38.80;;;;;;5109029;27;34280;-75
2022/04/06 06:24:12;;;;;;;6.57;1.50;;;10.30;38.80;;;;;;5107463;27;34440;-75
2022/04/06 06:26:42;;;;;;;2.90;1.38;;;10.40;38.70;;;;;;5117049;27;34438;-76
2022/04/06 06:29:08;;;;;;;4.75;1.55;;;10.40;38.60;;;;;;5069943;28;34220;-75
2022/04/06 06:31:35;;;;;;;4.15;1.42;;;10.40;38.70;;;;;;5086050;28;34253;-74
2022/04/06 06:34:01;;;;;;;7.10;1.88;;;10.40;38.60;;;;;;5087399;27;34474;-75
2022/04/06 06:36:28;;;;;;;4.05;1.63;;;10.50;38.60;;;;;;5106769;27;36065;-75
2022/04/06 06:38:55;;;;;;;2.63;1.55;;;10.50;38.50;;;;;;5119377;27;33643;-76
2022/04/06 06:41:22;;;;;;;4.60;1.60;;;10.50;38.50;;;;;;5094414;27;34109;-75
2022/04/06 06:43:50;;;;;;;3.53;1.45;;;10.60;38.30;;;;;;5116040;27;34259;-76
2022/04/06 06:46:18;;;;;;;4.35;1.80;;;10.60;37.90;;;;;;5104806;28;34422;-76
2022/04/06 06:48:46;;;;;;;1.35;1.15;;;10.60;37.90;;;;;;5106055;28;34240;-76
2022/04/06 06:51:13;;;;;;;2.58;1.45;;;10.70;37.80;;;;;;5070918;27;34425;-77
2022/04/06 06:53:39;;;;;;;5.22;1.30;;;10.60;37.10;;;;;;5111272;27;34310;-76
2022/04/06 06:56:06;;;;;;;1.73;1.27;;;10.60;37.70;;;;;;5101034;27;36337;-75
2022/04/06 06:58:32;;;;;;;3.95;1.40;;;10.70;37.50;;;;;;5107280;27;34283;-76
2022/04/06 07:00:58;;;;;;;4.88;1.17;;;10.70;37.60;;;;;;5106516;27;34130;-77
2022/04/06 07:03:24;;;;;;;1.23;1.05;;;10.70;37.50;;;;;;5107487;27;33987;-76
2022/04/06 07:05:50;;;;;;;2.03;1.40;;;10.70;37.30;;;;;;5106578;27;35718;-76
2022/04/06 07:08:16;;;;;;;4.95;1.30;;;10.70;37.30;;;;;;5107126;27;34301;-76
2022/04/06 07:10:46;;;;;;;1.58;1.15;;;10.70;37.30;;;;;;5106919;27;34404;-77
2022/04/06 07:13:15;;;;;;;4.75;1.10;;;10.70;36.80;;;;;;5090081;27;34535;-76
2022/04/06 07:15:41;;;;;;;3.80;1.10;;;10.70;37.30;;;;;;5107001;27;34347;-76
2022/04/06 07:18:09;;;;;;;2.65;1.20;;;10.70;37.20;;;;;;5124729;27;34124;-75
2022/04/06 07:20:36;;;;;;;3.10;1.10;;;10.80;37.10;;;;;;5122399;27;34144;-76
2022/04/06 07:23:04;;;;;;;3.72;1.10;;;10.80;37.10;;;;;;5124482;27;33963;-76
2022/04/06 07:25:30;;;;;;;3.35;1.20;;;10.80;36.40;;;;;;5123043;27;36455;-76
2022/04/06 07:28:02;;;;;;;4.00;1.20;;;10.90;36.10;;;;;;5128448;27;34156;-77
2022/04/06 07:30:29;;;;;;;2.97;1.10;;;10.90;36.30;;;;;;5112119;27;34137;-76
2022/04/06 07:32:58;;;;;;;3.03;1.17;;;10.90;36.10;;;;;;5111879;27;34062;-77
2022/04/06 07:35:24;;;;;;;2.55;0.82;;;10.90;36.00;;;;;;5116944;27;34457;-77
2022/04/06 07:37:51;;;;;;;2.03;1.00;;;10.90;35.90;;;;;;5078360;27;34326;-77
2022/04/06 07:40:19;;;;;;;2.10;1.02;;;10.90;35.50;;;;;;5112101;27;34062;-76
2022/04/06 07:42:46;;;;;;;2.83;1.10;;;10.90;35.00;;;;;;5093655;27;34157;-76
2022/04/06 07:45:16;;;;;;;5.07;1.00;;;10.90;35.70;;;;;;5109510;27;35963;-76
2022/04/06 07:47:44;;;;;;;3.13;1.10;;;10.90;35.30;;;;;;5092807;27;34061;-77
2022/04/06 07:50:13;;;;;;;2.78;1.00;;;10.90;35.20;;;;;;5093809;27;34398;-77
2022/04/06 07:52:39;;;;;;;2.22;1.10;;;10.90;33.90;;;;;;5088199;28;34655;-76
2022/04/06 07:55:07;;;;;;;2.92;1.00;;;10.90;34.00;;;;;;5078345;27;36918;-79
2022/04/06 07:57:33;;;;;;;3.90;0.82;;;10.90;34.10;;;;;;5109845;27;34100;-78
2022/04/06 08:00:05;;;;;;;1.92;0.93;;;10.90;35.00;;;;;;5093613;27;34461;-77
2022/04/06 08:02:32;;;;;;;3.38;0.88;;;11.00;34.40;;;;;;5127491;27;34204;-77
2022/04/06 08:04:58;;;;;;;3.15;1.00;;;11.00;34.90;;;;;;5111094;27;35425;-75
2022/04/06 08:07:24;;;;;;;2.25;1.00;;;11.10;34.90;;;;;;5128745;27;34039;-79
2022/04/06 08:09:50;;;;;;;1.05;0.70;;;11.10;34.80;;;;;;5110348;27;34111;-77
2022/04/06 08:12:16;;;;;;;2.47;0.95;;;11.10;34.90;;;;;;5127526;27;34416;-77
2022/04/06 08:14:42;;;;;;;2.63;1.00;;;11.10;34.70;;;;;;5109406;27;35644;-77
2022/04/06 08:17:08;;;;;;;3.28;0.90;;;11.10;34.50;;;;;;5109444;27;34213;-77
2022/04/06 08:19:34;;;;;;;4.50;1.08;;;11.10;34.40;;;;;;5128156;27;34422;-79
2022/04/06 08:22:00;;;;;;;6.85;1.10;;;11.20;34.50;;;;;;5106959;27;34131;-76
2022/04/06 08:24:27;;;;;;;3.42;0.90;;;11.20;34.40;;;;;;5097110;28;35673;-77
2022/04/06 08:26:53;;;;;;;2.95;0.90;;;11.20;34.20;;;;;;5090579;27;34389;-74
2022/04/06 08:29:19;;;;;;;1.38;1.02;;;11.10;33.50;;;;;;5108378;27;34185;-75
2022/04/06 08:31:45;;;;;;;2.45;1.02;;;11.10;33.90;;;;;;5126631;27;34363;-76
2022/04/06 08:34:11;;;;;;;3.83;0.90;;;11.10;34.40;;;;;;5108901;27;35648;-76
2022/04/06 08:36:40;;;;;;;1.95;0.80;;;11.20;34.30;;;;;;5109026;27;34190;-78
2022/04/06 08:39:06;;;;;;;6.22;1.13;;;11.10;34.20;;;;;;5120483;27;34287;-77
2022/04/06 08:41:32;;;;;;;1.75;0.90;;;11.10;33.60;;;;;;5098245;27;33994;-74
2022/04/06 08:43:59;;;;;;;2.90;0.95;;;11.10;34.20;;;;;;5091115;27;35565;-75
2022/04/06 08:46:26;;;;;;;3.22;0.98;;;11.20;34.00;;;;;;5108704;27;34180;-76
2022/04/06 08:48:52;;;;;;;1.50;0.90;;;11.30;34.00;;;;;;5107894;27;34139;-76
2022/04/06 08:51:20;;;;;;;1.45;0.98;;;11.40;33.80;;;;;;5126105;27;34200;-75
2022/04/06 08:53:47;;;;;;;2.97;0.80;;;11.40;33.70;;;;;;5126537;27;34555;-76
2022/04/06 08:56:14;;;;;;;2.05;1.08;;;11.40;33.10;;;;;;5108329;27;34191;-76
2022/04/06 08:58:41;;;;;;;1.52;1.10;;;11.40;33.00;;;;;;5108792;27;34189;-77
2022/04/06 09:01:09;;;;;;;1.70;0.90;;;11.40;33.30;;;;;;5126915;27;34165;-78
2022/04/06 09:03:35;;;;;;;1.25;0.93;;;11.40;33.20;;;;;;5126549;27;34338;-76
2022/04/06 09:06:07;;;;;;;2.97;0.93;;;11.50;33.60;;;;;;5127308;27;34176;-76
2022/04/06 09:08:39;;;;;;;1.33;1.00;;;11.50;33.00;;;;;;5126594;27;34130;-76
2022/04/06 09:11:07;;;;;;;4.32;1.02;;;11.60;33.00;;;;;;5107867;27;34253;-75
2022/04/06 09:13:34;;;;;;;1.77;1.20;;;11.60;33.10;;;;;;5126008;27;35026;-76
2022/04/06 09:16:00;;;;;;;1.98;1.08;;;11.60;33.10;;;;;;5104271;27;34139;-76
2022/04/06 09:18:35;;;;;;;1.25;1.00;;;11.60;32.50;;;;;;5120583;27;34419;-78
2022/04/06 09:21:02;;;;;;;1.35;0.80;;;11.60;31.30;;;;;;5108398;27;34215;-76
2022/04/06 09:23:30;;;;;;;2.20;1.10;;;11.60;32.00;;;;;;5107739;27;35665;-77
2022/04/06 09:26:03;;;;;;;1.67;0.93;;;11.60;32.90;;;;;;5107282;27;34146;-77
2022/04/06 09:28:30;;;;;;;2.47;0.93;;;11.60;32.60;;;;;;5090904;27;34134;-76
2022/04/06 09:30:55;;;;;;;5.40;0.90;;;11.60;32.90;;;;;;5090714;27;34727;-76
2022/04/06 09:33:22;;;;;;;5.47;0.90;;;11.60;33.10;;;;;;5107935;27;35802;-75
2022/04/06 09:35:48;;;;;;;3.05;1.40;;;11.70;33.00;;;;;;5126891;27;34220;-76
2022/04/06 09:38:23;;;;;;;2.58;1.00;;;11.70;32.70;;;;;;5107746;27;34463;-77
2022/04/06 09:40:51;;;;;;;2.30;1.00;;;11.80;32.10;;;;;;5107367;27;34216;-76
2022/04/06 09:43:27;;;;;;;1.10;1.00;;;11.80;31.70;;;;;;5091101;27;35937;-76
2022/04/06 09:48:52;;;;;;;3.20;1.00;;;11.80;32.60;;;;;;5124960;27;34126;-77
2022/04/06 09:51:21;;;;;;;2.40;0.90;;;11.80;29.90;;;;;;5125876;27;34470;-76
2022/04/06 09:53:49;;;;;;;2.17;1.05;;;11.80;32.20;;;;;;5125405;27;35340;-76
2022/04/06 09:56:16;;;;;;;1.80;0.73;;;11.70;32.50;;;;;;5090106;27;34176;-76
2022/04/06 09:58:45;;;;;;;4.57;1.65;;;11.70;31.30;;;;;;5107203;27;34255;-76
2022/04/06 10:01:12;;;;;;;2.95;1.17;;;11.70;32.70;;;;;;5070583;28;34145;-75
2022/04/06 10:03:40;;;;;;;2.67;1.10;;;11.80;32.50;;;;;;5069830;28;35702;-76
2022/04/06 10:06:06;;;;;;;3.03;1.20;;;11.80;32.40;;;;;;5070720;28;33981;-77
2022/04/06 10:08:32;;;;;;;1.42;1.08;;;11.80;32.00;;;;;;5070177;28;34502;-75
2022/04/06 10:10:59;;;;;;;8.77;1.23;;;11.90;32.50;;;;;;5104940;28;34134;-76
2022/04/06 10:13:27;;;;;;;1.02;0.82;;;12.00;32.50;;;;;;5087096;28;35943;-75
2022/04/06 10:15:54;;;;;;;1.50;1.08;;;12.00;31.20;;;;;;5087086;28;34103;-77
2022/04/06 10:18:20;;;;;;;5.68;1.30;;;12.00;31.50;;;;;;5086573;28;34172;-75
2022/04/06 10:21:10;;;;;;;2.22;1.05;;;12.10;32.00;;;;;;5089479;27;34087;-76
2022/04/06 10:24:10;;;;;;;1.70;1.00;;;12.20;30.20;;;;;;5107654;27;36671;-76
2022/04/06 10:27:10;;;;;;;2.33;1.08;;;12.10;28.50;;;;;;5107726;27;34159;-75
2022/04/06 10:30:07;;;;;;;0.90;0.90;;;12.10;30.10;;;;;;5079133;27;34148;-77
2022/04/06 10:32:34;;;;;;;1.08;0.90;;;12.10;30.20;;;;;;5077651;27;34081;-76
2022/04/06 10:35:17;;;;;;;1.30;0.93;;;12.10;31.00;;;;;;5107633;27;35975;-78
2022/04/06 10:38:16;;;;;;;1.00;0.90;;;12.10;29.90;;;;;;5089718;27;34095;-77
2022/04/06 10:41:05;;;;;;;1.77;1.05;;;12.10;30.00;;;;;;5124873;27;34150;-79
2022/04/06 10:43:50;;;;;;;1.20;1.10;;;12.20;29.50;;;;;;5086850;28;34115;-76
2022/04/06 10:46:19;;;;;;;2.63;1.08;;;12.40;29.80;;;;;;5069638;28;36779;-76
2022/04/06 10:49:12;;;;;;;1.70;1.05;;;12.50;31.30;;;;;;5086123;28;34190;-77
2022/04/06 10:51:41;;;;;;;0.88;0.80;;;12.60;29.00;;;;;;5104480;27;34178;-76
2022/04/06 10:54:38;;;;;;;0.90;0.82;;;12.60;30.50;;;;;;5097713;28;34231;-76
2022/04/06 10:57:05;;;;;;;1.40;1.02;;;12.70;28.90;;;;;;5073730;28;36483;-76
2022/04/06 10:59:31;;;;;;;1.10;0.95;;;12.80;30.60;;;;;;5069921;28;34517;-76
2022/04/06 11:02:17;;;;;;;2.03;1.08;;;12.90;30.50;;;;;;5088951;28;34184;-75
2022/04/06 11:04:43;;;;;;;2.35;0.95;;;13.00;27.40;;;;;;5090731;28;34039;-74
2022/04/06 11:07:10;;;;;;;3.50;1.27;;;12.90;30.00;;;;;;5073443;28;36875;-77
2022/04/06 11:12:30;;;;;;;1.00;0.85;;;12.90;28.50;;;;;;5107204;28;34380;-75
2022/04/06 11:15:19;;;;;;;1.60;0.90;;;12.90;29.90;;;;;;5073025;28;34592;-76
2022/04/06 11:17:45;;;;;;;2.78;1.00;;;13.10;26.80;;;;;;5093202;28;35654;-76
2022/04/06 11:20:14;;;;;;;1.10;0.90;;;13.30;30.10;;;;;;5090313;28;34262;-75
2022/04/06 11:22:43;;;;;;;1.00;0.90;;;13.50;28.60;;;;;;5106798;28;34193;-76
2022/04/06 11:25:13;;;;;;;1.98;0.90;;;13.50;28.50;;;;;;5089648;28;34210;-75
2022/04/06 11:27:40;;;;;;;1.48;0.82;;;13.50;28.40;;;;;;5089201;28;35853;-75
2022/04/06 11:30:12;;;;;;;0.95;0.85;;;13.50;29.20;;;;;;5090074;28;34129;-75
2022/04/06 11:32:40;;;;;;;0.73;0.73;;;13.50;28.70;;;;;;5072730;28;34078;-76
2022/04/06 11:35:08;;;;;;;2.20;0.93;;;13.60;28.00;;;;;;5107530;27;34017;-78
2022/04/06 11:37:41;;;;;;;1.55;0.80;;;13.60;28.40;;;;;;5055892;28;35326;-75
2022/04/06 11:40:08;;;;;;;0.80;0.80;;;13.60;28.20;;;;;;5089783;28;34393;-75
2022/04/06 11:42:34;;;;;;;1.23;0.60;;;13.60;29.00;;;;;;5089650;28;34387;-77
2022/04/06 11:45:00;;;;;;;1.92;0.88;;;13.60;27.90;;;;;;5119438;27;34587;-75
2022/04/06 11:47:32;;;;;;;1.23;0.80;;;13.50;28.50;;;;;;5107010;28;34463;-76
2022/04/06 11:49:59;;;;;;;1.88;0.90;;;13.50;28.70;;;;;;5092462;28;34206;-76
2022/04/06 11:52:25;;;;;;;1.83;0.80;;;13.60;28.40;;;;;;5071922;28;34215;-75
2022/04/06 11:54:54;;;;;;;0.98;0.77;;;13.70;26.80;;;;;;5090174;28;34400;-76
2022/04/06 11:57:21;;;;;;;2.67;0.98;;;13.70;28.30;;;;;;5089437;28;34296;-78
2022/04/06 11:59:56;;;;;;;2.80;1.00;;;13.70;28.20;;;;;;5090065;28;34487;-76
2022/04/06 12:02:22;;;;;;;1.65;1.10;;;13.90;26.90;;;;;;5111716;27;34497;-75
2022/04/06 12:05:04;;;;;;;1.52;0.90;;;13.90;28.20;;;;;;5109262;27;34259;-75
2022/04/06 12:07:31;;;;;;;2.10;0.90;;;13.90;23.00;;;;;;5109625;27;34217;-74
2022/04/06 12:09:57;;;;;;;2.05;1.00;;;13.70;28.00;;;;;;5083254;27;34219;-76
2022/04/06 12:12:24;;;;;;;6.80;1.00;;;13.60;28.30;;;;;;5120355;27;34302;-77
2022/04/06 12:14:52;;;;;;;1.13;1.02;;;13.60;26.50;;;;;;5091500;27;34099;-74
2022/04/06 12:17:19;;;;;;;5.07;1.00;;;13.50;27.60;;;;;;5102148;27;36006;-77
2022/04/06 12:19:45;;;;;;;1.05;0.82;;;13.40;28.30;;;;;;5106538;27;34032;-76
2022/04/06 12:22:11;;;;;;;2.28;0.80;;;13.40;28.10;;;;;;5126309;27;34308;-75
2022/04/06 12:24:39;;;;;;;2.55;1.00;;;13.40;28.40;;;;;;5127182;27;34079;-76
2022/04/06 12:27:06;;;;;;;0.98;0.88;;;13.30;28.20;;;;;;5096552;27;34327;-77
2022/04/06 12:29:35;;;;;;;2.80;1.00;;;13.30;27.40;;;;;;5090071;28;34144;-78
2022/04/06 12:32:04;;;;;;;1.77;0.77;;;13.30;27.90;;;;;;5088442;28;34451;-80
2022/04/06 12:34:32;;;;;;;1.95;0.80;;;13.30;28.40;;;;;;5072081;28;34128;-75
2022/04/06 12:36:58;;;;;;;0.93;0.80;;;13.40;28.10;;;;;;5088388;28;35610;-77
2022/04/06 12:39:51;;;;;;;3.38;1.10;;;13.50;27.60;;;;;;5108043;27;34084;-76
2022/04/06 12:42:18;;;;;;;1.75;1.10;;;13.50;25.80;;;;;;5107151;28;34159;-75
2022/04/06 12:45:02;;;;;;;4.15;1.38;;;13.50;28.50;;;;;;5088812;28;34147;-75
2022/04/06 12:47:28;;;;;;;1.30;0.90;;;13.50;26.70;;;;;;5072039;28;36758;-74
2022/04/06 12:50:11;;;;;;;1.23;0.80;;;13.50;28.50;;;;;;5105890;28;34055;-75
2022/04/06 12:52:37;;;;;;;6.30;1.27;;;13.40;26.30;;;;;;5106299;28;34212;-75
2022/04/06 12:55:06;;;;;;;3.08;1.20;;;13.50;28.50;;;;;;5106639;28;34004;-79
2022/04/06 12:57:34;;;;;;;2.67;1.20;;;13.60;27.50;;;;;;5088221;28;35582;-75
2022/04/06 13:00:13;;;;;;;2.17;1.38;;;13.60;28.30;;;;;;5054484;28;34492;-74